sensor_id;sensor_type;location;lat;lon;timestamp;pressure;altitude;pressure_sealevel;temperature;humidity
52032;BME280;38044;45.148;39.604;2023-03-21T00:00:58;100970.38;;;9.25;77.50
52032;BME280;38044;45.148;39.604;2023-03-21T00:03:25;101008.16;;;9.49;77.40
52032;BME280;38044;45.148;39.604;2023-03-21T00:05:51;100847.97;;;8.49;77.49
52032;BME280;38044;45.148;39.604;2023-03-21T00:08:22;100856.25;;;8.52;77.59
52032;BME280;38044;45.148;39.604;2023-03-21T00:10:55;100889.72;;;8.80;77.99
52032;BME280;38044;45.148;39.604;2023-03-21T00:13:21;101030.66;;;9.68;77.81
52032;BME280;38044;45.148;39.604;2023-03-21T00:15:47;101004.41;;;9.50;77.90
52032;BME280;38044;45.148;39.604;2023-03-21T00:18:22;100978.38;;;9.35;78.06
52032;BME280;38044;45.148;39.604;2023-03-21T00:21:00;101009.19;;;9.63;78.56
52032;BME280;38044;45.148;39.604;2023-03-21T00:23:27;100986.72;;;9.39;78.44
52032;BME280;38044;45.148;39.604;2023-03-21T00:25:54;101025.28;;;9.63;78.51
52032;BME280;38044;45.148;39.604;2023-03-21T00:28:21;101015.66;;;9.57;78.58
52032;BME280;38044;45.148;39.604;2023-03-21T00:30:47;101015.66;;;9.47;79.05
52032;BME280;38044;45.148;39.604;2023-03-21T00:33:13;101047.00;;;9.67;79.22
52032;BME280;38044;45.148;39.604;2023-03-21T00:35:40;101041.94;;;9.70;79.19
52032;BME280;38044;45.148;39.604;2023-03-21T00:38:12;101035.97;;;9.84;79.22
52032;BME280;38044;45.148;39.604;2023-03-21T00:40:38;101046.75;;;9.74;79.45
52032;BME280;38044;45.148;39.604;2023-03-21T00:43:04;101035.22;;;9.68;79.58
52032;BME280;38044;45.148;39.604;2023-03-21T00:45:30;101010.56;;;9.51;79.77
52032;BME280;38044;45.148;39.604;2023-03-21T00:47:56;101051.56;;;9.72;80.01
52032;BME280;38044;45.148;39.604;2023-03-21T00:50:22;101001.97;;;9.48;80.21
52032;BME280;38044;45.148;39.604;2023-03-21T00:52:48;101019.41;;;9.56;80.48
52032;BME280;38044;45.148;39.604;2023-03-21T00:55:15;101038.16;;;9.72;80.49
52032;BME280;38044;45.148;39.604;2023-03-21T00:57:41;101035.00;;;9.44;80.96
52032;BME280;38044;45.148;39.604;2023-03-21T01:00:11;101034.97;;;9.54;81.93
52032;BME280;38044;45.148;39.604;2023-03-21T01:02:38;101044.63;;;9.65;81.77
52032;BME280;38044;45.148;39.604;2023-03-21T01:05:08;101013.50;;;9.49;81.70
52032;BME280;38044;45.148;39.604;2023-03-21T01:07:35;100874.22;;;8.57;82.11
52032;BME280;38044;45.148;39.604;2023-03-21T01:10:01;101028.25;;;9.57;82.55
52032;BME280;38044;45.148;39.604;2023-03-21T01:12:27;100881.72;;;8.65;82.48
52032;BME280;38044;45.148;39.604;2023-03-21T01:14:53;101022.91;;;9.52;82.78
52032;BME280;38044;45.148;39.604;2023-03-21T01:17:18;101052.38;;;9.72;82.89
52032;BME280;38044;45.148;39.604;2023-03-21T01:19:44;100896.97;;;8.75;82.64
52032;BME280;38044;45.148;39.604;2023-03-21T01:22:11;100940.88;;;9.10;82.94
52032;BME280;38044;45.148;39.604;2023-03-21T01:24:36;101053.44;;;9.76;83.12
52032;BME280;38044;45.148;39.604;2023-03-21T01:27:02;101021.81;;;9.58;83.12
52032;BME280;38044;45.148;39.604;2023-03-21T01:29:28;101058.53;;;9.78;83.47
52032;BME280;38044;45.148;39.604;2023-03-21T01:31:54;101050.78;;;9.76;83.43
52032;BME280;38044;45.148;39.604;2023-03-21T01:34:20;101009.78;;;9.50;83.42
52032;BME280;38044;45.148;39.604;2023-03-21T01:36:46;101021.00;;;9.57;83.28
52032;BME280;38044;45.148;39.604;2023-03-21T01:39:12;101036.31;;;9.57;83.59
52032;BME280;38044;45.148;39.604;2023-03-21T01:41:40;100992.59;;;9.41;83.61
52032;BME280;38044;45.148;39.604;2023-03-21T01:44:06;100998.50;;;9.43;83.33
52032;BME280;38044;45.148;39.604;2023-03-21T01:46:40;101048.34;;;9.75;83.81
52032;BME280;38044;45.148;39.604;2023-03-21T01:49:22;100899.38;;;8.87;83.68
52032;BME280;38044;45.148;39.604;2023-03-21T01:51:58;101056.94;;;9.82;83.66
52032;BME280;38044;45.148;39.604;2023-03-21T01:54:29;101028.25;;;9.62;83.56
52032;BME280;38044;45.148;39.604;2023-03-21T01:56:58;100891.63;;;8.75;83.75
52032;BME280;38044;45.148;39.604;2023-03-21T01:59:36;101068.72;;;9.91;83.86
52032;BME280;38044;45.148;39.604;2023-03-21T02:02:06;101061.50;;;9.76;83.52
52032;BME280;38044;45.148;39.604;2023-03-21T02:04:37;101068.78;;;9.70;84.07
52032;BME280;38044;45.148;39.604;2023-03-21T02:07:28;101077.31;;;9.93;84.30
52032;BME280;38044;45.148;39.604;2023-03-21T02:09:55;101094.78;;;9.80;83.97
52032;BME280;38044;45.148;39.604;2023-03-21T02:12:21;101072.50;;;9.69;84.10
52032;BME280;38044;45.148;39.604;2023-03-21T02:14:48;101081.09;;;9.82;84.05
52032;BME280;38044;45.148;39.604;2023-03-21T02:17:24;101073.03;;;9.82;84.19
52032;BME280;38044;45.148;39.604;2023-03-21T02:20:27;101087.50;;;9.96;84.18
52032;BME280;38044;45.148;39.604;2023-03-21T02:31:04;101059.63;;;9.72;84.15
52032;BME280;38044;45.148;39.604;2023-03-21T02:36:16;101093.41;;;9.93;84.36
52032;BME280;38044;45.148;39.604;2023-03-21T02:39:08;100994.78;;;9.34;84.61
52032;BME280;38044;45.148;39.604;2023-03-21T02:41:52;101098.25;;;9.96;84.44
52032;BME280;38044;45.148;39.604;2023-03-21T02:47:45;101063.66;;;9.79;84.44
52032;BME280;38044;45.148;39.604;2023-03-21T02:50:14;101090.44;;;9.95;84.13
52032;BME280;38044;45.148;39.604;2023-03-21T02:52:45;100941.22;;;8.93;83.50
52032;BME280;38044;45.148;39.604;2023-03-21T02:55:20;101082.16;;;9.76;83.62
52032;BME280;38044;45.148;39.604;2023-03-21T02:57:49;101096.66;;;9.85;83.52
52032;BME280;38044;45.148;39.604;2023-03-21T03:00:18;101008.47;;;9.22;83.51
52032;BME280;38044;45.148;39.604;2023-03-21T03:02:46;101109.00;;;9.86;83.05
52032;BME280;38044;45.148;39.604;2023-03-21T03:05:20;101125.09;;;9.86;83.05
52032;BME280;38044;45.148;39.604;2023-03-21T03:10:26;101115.72;;;9.83;82.40
52032;BME280;38044;45.148;39.604;2023-03-21T03:13:13;101110.63;;;9.82;82.41
52032;BME280;38044;45.148;39.604;2023-03-21T03:18:49;101084.59;;;9.67;82.26
52032;BME280;38044;45.148;39.604;2023-03-21T03:21:19;101122.16;;;9.77;82.13
52032;BME280;38044;45.148;39.604;2023-03-21T03:24:49;101127.78;;;9.91;82.77
52032;BME280;38044;45.148;39.604;2023-03-21T03:27:17;101090.78;;;9.67;82.44
52032;BME280;38044;45.148;39.604;2023-03-21T03:29:45;101131.56;;;9.75;82.38
52032;BME280;38044;45.148;39.604;2023-03-21T03:32:17;101023.22;;;9.04;82.60
52032;BME280;38044;45.148;39.604;2023-03-21T03:34:51;101138.53;;;9.76;83.05
52032;BME280;38044;45.148;39.604;2023-03-21T03:37:23;100968.00;;;8.72;82.36
52032;BME280;38044;45.148;39.604;2023-03-21T03:39:59;101055.97;;;9.21;82.83
52032;BME280;38044;45.148;39.604;2023-03-21T03:42:37;101150.91;;;9.72;82.95
52032;BME280;38044;45.148;39.604;2023-03-21T03:45:06;101139.38;;;9.66;83.02
52032;BME280;38044;45.148;39.604;2023-03-21T03:47:46;101003.94;;;8.82;83.24
52032;BME280;38044;45.148;39.604;2023-03-21T03:52:45;100988.38;;;8.68;83.60
52032;BME280;38044;45.148;39.604;2023-03-21T03:55:16;101144.75;;;9.56;83.75
52032;BME280;38044;45.148;39.604;2023-03-21T03:57:43;101128.91;;;9.44;83.82
52032;BME280;38044;45.148;39.604;2023-03-21T04:00:11;101123.03;;;9.42;83.78
52032;BME280;38044;45.148;39.604;2023-03-21T04:02:38;101146.06;;;9.58;83.94
52032;BME280;38044;45.148;39.604;2023-03-21T04:05:04;101145.03;;;9.59;83.96
52032;BME280;38044;45.148;39.604;2023-03-21T04:07:30;100987.84;;;8.51;84.11
52032;BME280;38044;45.148;39.604;2023-03-21T04:09:56;101131.88;;;9.42;83.99
52032;BME280;38044;45.148;39.604;2023-03-21T04:12:23;101156.56;;;9.55;84.19
52032;BME280;38044;45.148;39.604;2023-03-21T04:14:49;100998.81;;;8.54;84.35
52032;BME280;38044;45.148;39.604;2023-03-21T04:17:16;101146.63;;;9.55;83.99
52032;BME280;38044;45.148;39.604;2023-03-21T04:19:43;101129.44;;;9.41;84.44
52032;BME280;38044;45.148;39.604;2023-03-21T04:22:10;101158.69;;;9.63;84.35
52032;BME280;38044;45.148;39.604;2023-03-21T04:24:38;100982.75;;;8.44;84.38
52032;BME280;38044;45.148;39.604;2023-03-21T04:27:04;101117.63;;;9.27;84.49
52032;BME280;38044;45.148;39.604;2023-03-21T04:29:31;101020.28;;;8.65;84.71
52032;BME280;38044;45.148;39.604;2023-03-21T04:31:57;101180.47;;;9.56;84.79
52032;BME280;38044;45.148;39.604;2023-03-21T04:34:23;101138.03;;;9.33;84.96
52032;BME280;38044;45.148;39.604;2023-03-21T04:36:53;101128.91;;;9.44;85.12
52032;BME280;38044;45.148;39.604;2023-03-21T04:39:20;100993.22;;;8.56;84.90
52032;BME280;38044;45.148;39.604;2023-03-21T04:41:46;101132.69;;;9.43;84.93
52032;BME280;38044;45.148;39.604;2023-03-21T04:44:14;101168.63;;;9.67;84.87
52032;BME280;38044;45.148;39.604;2023-03-21T04:46:41;101127.84;;;9.50;84.72
52032;BME280;38044;45.148;39.604;2023-03-21T04:49:07;101142.84;;;9.66;84.62
52032;BME280;38044;45.148;39.604;2023-03-21T04:51:34;101104.25;;;9.42;84.78
52032;BME280;38044;45.148;39.604;2023-03-21T04:54:00;101177.22;;;9.85;84.23
52032;BME280;38044;45.148;39.604;2023-03-21T04:56:27;101176.94;;;9.81;84.56
52032;BME280;38044;45.148;39.604;2023-03-21T04:58:59;101177.22;;;9.80;84.55
52032;BME280;38044;45.148;39.604;2023-03-21T05:01:25;101175.63;;;9.74;84.64
52032;BME280;38044;45.148;39.604;2023-03-21T05:03:59;101059.19;;;9.13;84.56
52032;BME280;38044;45.148;39.604;2023-03-21T05:06:25;101183.63;;;9.89;84.48
52032;BME280;38044;45.148;39.604;2023-03-21T05:08:53;101123.00;;;9.57;84.35
52032;BME280;38044;45.148;39.604;2023-03-21T05:11:21;101131.06;;;9.62;84.13
52032;BME280;38044;45.148;39.604;2023-03-21T05:13:47;101152.50;;;9.83;84.08
52032;BME280;38044;45.148;39.604;2023-03-21T05:16:13;101114.94;;;9.57;84.30
52032;BME280;38044;45.148;39.604;2023-03-21T05:18:39;101128.38;;;9.67;84.34
52032;BME280;38044;45.148;39.604;2023-03-21T05:21:05;101183.09;;;9.92;83.98
52032;BME280;38044;45.148;39.604;2023-03-21T05:23:36;101183.09;;;10.02;83.87
52032;BME280;38044;45.148;39.604;2023-03-21T05:26:08;101192.75;;;10.08;84.23
52032;BME280;38044;45.148;39.604;2023-03-21T05:28:35;101165.34;;;10.01;83.86
52032;BME280;38044;45.148;39.604;2023-03-21T05:31:02;101186.81;;;10.22;83.59
52032;BME280;38044;45.148;39.604;2023-03-21T05:33:28;101010.09;;;9.02;83.50
52032;BME280;38044;45.148;39.604;2023-03-21T05:35:55;101161.06;;;9.95;83.89
52032;BME280;38044;45.148;39.604;2023-03-21T05:38:20;101191.66;;;10.14;84.04
52032;BME280;38044;45.148;39.604;2023-03-21T05:40:47;101212.06;;;10.31;83.68
52032;BME280;38044;45.148;39.604;2023-03-21T05:43:13;101097.75;;;9.58;83.21
52032;BME280;38044;45.148;39.604;2023-03-21T05:45:39;101175.00;;;10.12;83.38
52032;BME280;38044;45.148;39.604;2023-03-21T05:48:05;101051.13;;;9.29;82.97
52032;BME280;38044;45.148;39.604;2023-03-21T05:50:31;101212.03;;;10.41;83.05
52032;BME280;38044;45.148;39.604;2023-03-21T05:52:57;101210.97;;;10.37;82.87
52032;BME280;38044;45.148;39.604;2023-03-21T05:55:23;101213.94;;;10.35;82.87
52032;BME280;38044;45.148;39.604;2023-03-21T05:57:49;101230.84;;;10.41;83.04
52032;BME280;38044;45.148;39.604;2023-03-21T06:00:15;101209.09;;;10.43;82.87
52032;BME280;38044;45.148;39.604;2023-03-21T06:02:41;101219.28;;;10.46;82.43
52032;BME280;38044;45.148;39.604;2023-03-21T06:05:07;101210.44;;;10.40;82.22
52032;BME280;38044;45.148;39.604;2023-03-21T06:07:33;101185.47;;;10.29;82.56
52032;BME280;38044;45.148;39.604;2023-03-21T06:10:00;101213.09;;;10.50;82.51
52032;BME280;38044;45.148;39.604;2023-03-21T06:12:25;101191.09;;;10.33;82.70
52032;BME280;38044;45.148;39.604;2023-03-21T06:14:51;101076.28;;;9.68;82.47
52032;BME280;38044;45.148;39.604;2023-03-21T06:17:17;101200.16;;;10.57;82.59
52032;BME280;38044;45.148;39.604;2023-03-21T06:19:43;101114.31;;;10.01;82.23
52032;BME280;38044;45.148;39.604;2023-03-21T06:22:09;101209.53;;;10.70;82.22
52032;BME280;38044;45.148;39.604;2023-03-21T06:24:35;101175.38;;;10.66;81.85
52032;BME280;38044;45.148;39.604;2023-03-21T06:27:00;101188.19;;;10.84;81.39
52032;BME280;38044;45.148;39.604;2023-03-21T06:29:26;101036.69;;;10.05;81.02
52032;BME280;38044;45.148;39.604;2023-03-21T06:31:52;101014.38;;;10.04;80.38
52032;BME280;38044;45.148;39.604;2023-03-21T06:34:18;101205.16;;;11.29;80.45
52032;BME280;38044;45.148;39.604;2023-03-21T06:36:44;101045.91;;;10.48;80.30
52032;BME280;38044;45.148;39.604;2023-03-21T06:39:11;101044.19;;;10.68;79.57
52032;BME280;38044;45.148;39.604;2023-03-21T06:41:37;101152.28;;;11.43;78.86
52032;BME280;38044;45.148;39.604;2023-03-21T06:44:02;101166.75;;;11.53;78.88
52032;BME280;38044;45.148;39.604;2023-03-21T06:46:28;101154.34;;;11.57;78.57
52032;BME280;38044;45.148;39.604;2023-03-21T06:48:54;101194.47;;;11.87;78.64
52032;BME280;38044;45.148;39.604;2023-03-21T06:51:20;101196.81;;;11.99;78.18
52032;BME280;38044;45.148;39.604;2023-03-21T06:53:46;101036.91;;;11.02;78.09
52032;BME280;38044;45.148;39.604;2023-03-21T06:56:13;101194.75;;;12.15;77.41
52032;BME280;38044;45.148;39.604;2023-03-21T06:58:39;101200.19;;;12.10;76.98
52032;BME280;38044;45.148;39.604;2023-03-21T07:01:06;101038.94;;;11.16;76.94
52032;BME280;38044;45.148;39.604;2023-03-21T07:03:32;101071.06;;;11.36;76.47
52032;BME280;38044;45.148;39.604;2023-03-21T07:06:04;101157.50;;;11.93;76.25
52032;BME280;38044;45.148;39.604;2023-03-21T07:08:31;101198.63;;;12.04;76.38
52032;BME280;38044;45.148;39.604;2023-03-21T07:10:57;101197.00;;;12.08;76.31
52032;BME280;38044;45.148;39.604;2023-03-21T07:13:23;101199.97;;;12.06;76.14
52032;BME280;38044;45.148;39.604;2023-03-21T07:15:48;101073.38;;;11.19;75.94
52032;BME280;38044;45.148;39.604;2023-03-21T07:18:14;101135.56;;;11.46;76.05
52032;BME280;38044;45.148;39.604;2023-03-21T07:20:40;101212.31;;;11.78;76.35
52032;BME280;38044;45.148;39.604;2023-03-21T07:23:06;101192.00;;;11.62;76.08
52032;BME280;38044;45.148;39.604;2023-03-21T07:25:32;101087.03;;;10.93;76.38
52032;BME280;38044;45.148;39.604;2023-03-21T07:27:58;101182.09;;;11.52;77.04
52032;BME280;38044;45.148;39.604;2023-03-21T07:30:25;101169.19;;;11.49;76.84
52032;BME280;38044;45.148;39.604;2023-03-21T07:32:51;101207.44;;;11.80;77.22
52032;BME280;38044;45.148;39.604;2023-03-21T07:35:17;101198.28;;;11.81;76.85
52032;BME280;38044;45.148;39.604;2023-03-21T07:37:43;101203.16;;;11.79;76.09
52032;BME280;38044;45.148;39.604;2023-03-21T07:40:10;101215.56;;;11.75;76.14
52032;BME280;38044;45.148;39.604;2023-03-21T07:42:39;101056.41;;;10.84;76.19
52032;BME280;38044;45.148;39.604;2023-03-21T07:45:06;101037.97;;;10.67;75.81
52032;BME280;38044;45.148;39.604;2023-03-21T07:47:32;101214.81;;;11.69;75.92
52032;BME280;38044;45.148;39.604;2023-03-21T07:49:58;101093.75;;;10.91;75.93
52032;BME280;38044;45.148;39.604;2023-03-21T07:52:24;101053.88;;;10.64;76.09
52032;BME280;38044;45.148;39.604;2023-03-21T07:54:50;101184.56;;;11.48;75.77
52032;BME280;38044;45.148;39.604;2023-03-21T07:57:16;101177.31;;;11.44;75.95
52032;BME280;38044;45.148;39.604;2023-03-21T07:59:42;101215.38;;;11.66;75.98
52032;BME280;38044;45.148;39.604;2023-03-21T08:02:13;101218.38;;;11.65;75.47
52032;BME280;38044;45.148;39.604;2023-03-21T08:04:39;101184.03;;;11.46;75.42
52032;BME280;38044;45.148;39.604;2023-03-21T08:07:05;101141.19;;;11.16;75.42
52032;BME280;38044;45.148;39.604;2023-03-21T08:09:31;101216.75;;;11.64;75.44
52032;BME280;38044;45.148;39.604;2023-03-21T08:11:56;101103.66;;;10.95;75.32
52032;BME280;38044;45.148;39.604;2023-03-21T08:14:22;101219.66;;;11.67;74.83
52032;BME280;38044;45.148;39.604;2023-03-21T08:16:48;101106.28;;;11.05;75.12
52032;BME280;38044;45.148;39.604;2023-03-21T08:19:14;101163.34;;;11.42;74.43
52032;BME280;38044;45.148;39.604;2023-03-21T08:21:40;101211.75;;;11.81;74.63
52032;BME280;38044;45.148;39.604;2023-03-21T08:24:06;101043.06;;;10.74;74.30
52032;BME280;38044;45.148;39.604;2023-03-21T08:26:32;101224.59;;;11.94;74.44
52032;BME280;38044;45.148;39.604;2023-03-21T08:28:59;101095.13;;;11.22;74.19
52032;BME280;38044;45.148;39.604;2023-03-21T08:31:24;101169.81;;;11.70;73.41
52032;BME280;38044;45.148;39.604;2023-03-21T08:33:50;101206.75;;;11.99;73.71
52032;BME280;38044;45.148;39.604;2023-03-21T08:36:20;101065.38;;;11.09;73.90
52032;BME280;38044;45.148;39.604;2023-03-21T08:38:46;101207.13;;;12.16;73.38
52032;BME280;38044;45.148;39.604;2023-03-21T08:41:15;101206.75;;;11.99;73.34
52032;BME280;38044;45.148;39.604;2023-03-21T08:43:41;101029.50;;;10.84;73.67
52032;BME280;38044;45.148;39.604;2023-03-21T08:46:07;101198.97;;;11.97;73.50
52032;BME280;38044;45.148;39.604;2023-03-21T08:48:33;101202.50;;;11.92;73.33
52032;BME280;38044;45.148;39.604;2023-03-21T08:50:59;101201.31;;;12.04;73.19
52032;BME280;38044;45.148;39.604;2023-03-21T08:53:25;101202.44;;;12.03;73.42
52032;BME280;38044;45.148;39.604;2023-03-21T08:55:51;101214.13;;;12.17;72.85
52032;BME280;38044;45.148;39.604;2023-03-21T08:58:17;101203.59;;;12.21;73.09
52032;BME280;38044;45.148;39.604;2023-03-21T09:00:43;101140.91;;;11.81;72.95
52032;BME280;38044;45.148;39.604;2023-03-21T09:03:08;101193.31;;;12.23;72.86
52032;BME280;38044;45.148;39.604;2023-03-21T09:05:35;101198.66;;;12.28;72.64
52032;BME280;38044;45.148;39.604;2023-03-21T09:08:01;101099.47;;;11.77;72.17
52032;BME280;38044;45.148;39.604;2023-03-21T09:10:28;101155.41;;;12.14;71.78
52032;BME280;38044;45.148;39.604;2023-03-21T09:12:54;101187.97;;;12.42;72.18
52032;BME280;38044;45.148;39.604;2023-03-21T09:15:22;101076.63;;;11.74;72.42
52032;BME280;38044;45.148;39.604;2023-03-21T09:17:49;101150.38;;;12.31;71.66
52032;BME280;38044;45.148;39.604;2023-03-21T09:20:18;101196.69;;;12.57;71.29
52032;BME280;38044;45.148;39.604;2023-03-21T09:22:49;101025.84;;;11.62;71.71
52032;BME280;38044;45.148;39.604;2023-03-21T09:25:17;101201.63;;;12.74;71.40
52032;BME280;38044;45.148;39.604;2023-03-21T09:27:44;101187.25;;;12.79;71.03
52032;BME280;38044;45.148;39.604;2023-03-21T09:30:15;101174.00;;;12.82;69.91
52032;BME280;38044;45.148;39.604;2023-03-21T09:32:42;101182.50;;;12.90;70.55
52032;BME280;38044;45.148;39.604;2023-03-21T09:35:10;101183.41;;;12.85;70.91
52032;BME280;38044;45.148;39.604;2023-03-21T09:37:37;101201.44;;;13.08;69.70
52032;BME280;38044;45.148;39.604;2023-03-21T09:40:29;101191.28;;;13.19;70.12
52032;BME280;38044;45.148;39.604;2023-03-21T09:45:56;101190.75;;;13.55;69.19
52032;BME280;38044;45.148;39.604;2023-03-21T09:48:36;101155.19;;;13.34;68.26
52032;BME280;38044;45.148;39.604;2023-03-21T09:51:09;101186.44;;;13.54;69.13
52032;BME280;38044;45.148;39.604;2023-03-21T09:53:41;101185.06;;;13.57;68.70
52032;BME280;38044;45.148;39.604;2023-03-21T09:56:10;101170.84;;;13.51;68.72
52032;BME280;38044;45.148;39.604;2023-03-21T09:58:46;101154.84;;;13.55;68.69
52032;BME280;38044;45.148;39.604;2023-03-21T10:01:37;101183.72;;;13.87;67.32
52032;BME280;38044;45.148;39.604;2023-03-21T10:04:12;101161.91;;;13.50;68.09
52032;BME280;38044;45.148;39.604;2023-03-21T10:06:42;101190.59;;;13.65;67.74
52032;BME280;38044;45.148;39.604;2023-03-21T10:09:14;101187.84;;;13.51;68.25
52032;BME280;38044;45.148;39.604;2023-03-21T10:11:47;101184.03;;;13.52;68.23
52032;BME280;38044;45.148;39.604;2023-03-21T10:16:45;101062.34;;;12.78;67.59
52032;BME280;38044;45.148;39.604;2023-03-21T10:19:15;101190.66;;;13.60;67.82
52032;BME280;38044;45.148;39.604;2023-03-21T10:21:43;101188.69;;;13.66;67.64
52032;BME280;38044;45.148;39.604;2023-03-21T10:24:16;101181.34;;;13.85;67.11
52032;BME280;38044;45.148;39.604;2023-03-21T10:26:43;101181.69;;;13.79;66.77
52032;BME280;38044;45.148;39.604;2023-03-21T10:29:13;101037.84;;;12.94;66.72
52032;BME280;38044;45.148;39.604;2023-03-21T10:31:42;101141.97;;;13.65;66.68
52032;BME280;38044;45.148;39.604;2023-03-21T10:34:24;101183.16;;;14.04;66.82
52032;BME280;38044;45.148;39.604;2023-03-21T10:36:53;101177.56;;;14.14;66.15
52032;BME280;38044;45.148;39.604;2023-03-21T10:39:31;101150.72;;;14.17;65.81
52032;BME280;38044;45.148;39.604;2023-03-21T10:41:58;101145.09;;;14.28;65.83
52032;BME280;38044;45.148;39.604;2023-03-21T10:44:34;101155.94;;;14.55;65.41
52032;BME280;38044;45.148;39.604;2023-03-21T10:47:05;101166.72;;;14.41;65.29
52032;BME280;38044;45.148;39.604;2023-03-21T10:49:32;101110.75;;;13.87;65.56
52032;BME280;38044;45.148;39.604;2023-03-21T10:52:01;101134.69;;;13.93;66.36
52032;BME280;38044;45.148;39.604;2023-03-21T10:54:30;101150.22;;;13.88;66.29
52032;BME280;38044;45.148;39.604;2023-03-21T10:56:59;101019.88;;;13.03;66.66
52032;BME280;38044;45.148;39.604;2023-03-21T10:59:35;101125.97;;;13.83;66.71
52032;BME280;38044;45.148;39.604;2023-03-21T11:02:04;101157.50;;;13.87;66.49
52032;BME280;38044;45.148;39.604;2023-03-21T11:04:31;101026.75;;;12.95;67.00
52032;BME280;38044;45.148;39.604;2023-03-21T11:07:03;101115.03;;;13.60;67.35
52032;BME280;38044;45.148;39.604;2023-03-21T11:09:56;101147.50;;;13.88;66.49
52032;BME280;38044;45.148;39.604;2023-03-21T11:12:36;101017.19;;;12.84;67.56
52032;BME280;38044;45.148;39.604;2023-03-21T11:17:53;101026.50;;;12.59;67.68
52032;BME280;38044;45.148;39.604;2023-03-21T11:20:19;101138.78;;;13.31;68.12
52032;BME280;38044;45.148;39.604;2023-03-21T11:22:46;101162.16;;;13.35;68.90
52032;BME280;38044;45.148;39.604;2023-03-21T11:25:38;101149.84;;;13.62;69.02
52032;BME280;38044;45.148;39.604;2023-03-21T11:28:15;101045.69;;;13.09;68.18
52032;BME280;38044;45.148;39.604;2023-03-21T11:30:56;101116.53;;;13.66;67.69
52032;BME280;38044;45.148;39.604;2023-03-21T11:33:26;100995.75;;;12.93;66.82
52032;BME280;38044;45.148;39.604;2023-03-21T11:36:03;101149.50;;;14.10;67.14
52032;BME280;38044;45.148;39.604;2023-03-21T11:38:39;101119.16;;;13.99;67.32
52032;BME280;38044;45.148;39.604;2023-03-21T11:41:06;100987.41;;;13.08;67.48
52032;BME280;38044;45.148;39.604;2023-03-21T11:43:37;100996.09;;;13.19;67.10
52032;BME280;38044;45.148;39.604;2023-03-21T11:48:34;101091.03;;;13.86;66.39
52032;BME280;38044;45.148;39.604;2023-03-21T11:51:24;101153.53;;;14.26;66.29
52032;BME280;38044;45.148;39.604;2023-03-21T11:54:15;101158.03;;;14.17;66.64
52032;BME280;38044;45.148;39.604;2023-03-21T11:56:50;101139.50;;;13.96;66.81
52032;BME280;38044;45.148;39.604;2023-03-21T12:05:51;101149.13;;;14.16;66.15
52032;BME280;38044;45.148;39.604;2023-03-21T12:10:41;101147.69;;;14.33;65.77
52032;BME280;38044;45.148;39.604;2023-03-21T12:22:01;101153.09;;;14.47;65.38
52032;BME280;38044;45.148;39.604;2023-03-21T12:26:59;101152.91;;;14.43;64.89
52032;BME280;38044;45.148;39.604;2023-03-21T12:29:35;101153.81;;;14.66;64.79
52032;BME280;38044;45.148;39.604;2023-03-21T12:32:24;101161.13;;;14.66;65.13
52032;BME280;38044;45.148;39.604;2023-03-21T12:45:47;101108.16;;;14.09;65.65
52032;BME280;38044;45.148;39.604;2023-03-21T12:50:47;101152.72;;;14.26;65.80
52032;BME280;38044;45.148;39.604;2023-03-21T12:56:12;101126.81;;;14.11;65.67
52032;BME280;38044;45.148;39.604;2023-03-21T12:58:53;101014.66;;;13.53;65.83
52032;BME280;38044;45.148;39.604;2023-03-21T13:01:23;101104.06;;;13.98;65.60
52032;BME280;38044;45.148;39.604;2023-03-21T13:04:05;101083.03;;;13.81;66.36
52032;BME280;38044;45.148;39.604;2023-03-21T13:06:34;101129.75;;;13.82;66.50
52032;BME280;38044;45.148;39.604;2023-03-21T13:09:11;101090.19;;;13.44;67.31
52032;BME280;38044;45.148;39.604;2023-03-21T13:11:39;101101.88;;;13.40;67.43
52032;BME280;38044;45.148;39.604;2023-03-21T13:16:43;100972.13;;;12.52;68.02
52032;BME280;38044;45.148;39.604;2023-03-21T13:22:27;101140.25;;;13.69;68.02
52032;BME280;38044;45.148;39.604;2023-03-21T13:25:14;101134.22;;;13.59;68.00
52032;BME280;38044;45.148;39.604;2023-03-21T13:27:41;101144.63;;;13.51;67.89
52032;BME280;38044;45.148;39.604;2023-03-21T13:32:41;101149.50;;;13.49;67.81
52032;BME280;38044;45.148;39.604;2023-03-21T13:35:40;101144.22;;;13.58;67.86
52032;BME280;38044;45.148;39.604;2023-03-21T13:38:14;101157.81;;;13.53;67.65
52032;BME280;38044;45.148;39.604;2023-03-21T13:40:46;101142.88;;;13.42;68.02
52032;BME280;38044;45.148;39.604;2023-03-21T13:51:49;101142.63;;;13.57;68.24
52032;BME280;38044;45.148;39.604;2023-03-21T13:54:59;101002.72;;;12.61;68.49
52032;BME280;38044;45.148;39.604;2023-03-21T13:57:19;101011.75;;;12.70;67.90
52032;BME280;38044;45.148;39.604;2023-03-21T13:59:45;101130.22;;;13.56;67.97
52032;BME280;38044;45.148;39.604;2023-03-21T14:04:39;101113.78;;;13.39;67.93
52032;BME280;38044;45.148;39.604;2023-03-21T14:07:15;101105.78;;;13.34;68.02
52032;BME280;38044;45.148;39.604;2023-03-21T14:09:47;101140.63;;;13.49;68.06
52032;BME280;38044;45.148;39.604;2023-03-21T14:12:16;101145.72;;;13.50;68.14
52032;BME280;38044;45.148;39.604;2023-03-21T14:14:46;101026.88;;;12.71;68.34
52032;BME280;38044;45.148;39.604;2023-03-21T14:19:57;101152.97;;;13.36;68.56
52032;BME280;38044;45.148;39.604;2023-03-21T14:22:24;101056.75;;;12.75;68.99
52032;BME280;38044;45.148;39.604;2023-03-21T14:25:00;101003.56;;;12.43;68.92
52032;BME280;38044;45.148;39.604;2023-03-21T14:27:31;101150.97;;;13.28;69.23